createdAt,value
2018-06-14T00:00:47.218Z,13.88
2018-06-14T00:03:16.115Z,13.97
2018-06-14T00:05:45.092Z,13.79
2018-06-14T00:08:13.990Z,13.82
2018-06-14T00:10:42.917Z,13.88
2018-06-14T00:13:11.829Z,13.85
2018-06-14T00:15:40.757Z,13.88
2018-06-14T00:18:09.639Z,13.69
2018-06-14T00:20:38.531Z,13.60
2018-06-14T00:23:07.469Z,13.74
2018-06-14T00:25:36.393Z,13.73
2018-06-14T00:28:05.326Z,13.77
2018-06-14T00:30:34.230Z,13.80
2018-06-14T00:33:03.213Z,13.74
2018-06-14T00:35:32.165Z,13.68
2018-06-14T00:38:01.130Z,13.72
2018-06-14T00:40:30.134Z,13.66
2018-06-14T00:42:59.048Z,13.64
2018-06-14T00:45:27.954Z,13.56
2018-06-14T00:47:56.945Z,13.55
2018-06-14T00:50:25.848Z,13.58
2018-06-14T00:52:54.777Z,13.56
2018-06-14T00:55:23.696Z,13.59
2018-06-14T00:57:52.587Z,13.62
2018-06-14T01:00:21.516Z,13.66
2018-06-14T01:02:50.418Z,13.71
2018-06-14T01:05:19.329Z,13.71
2018-06-14T01:07:48.234Z,13.63
2018-06-14T01:10:17.164Z,13.57
2018-06-14T01:12:46.093Z,13.67
2018-06-14T01:15:14.989Z,13.50
2018-06-14T01:17:44.222Z,13.37
2018-06-14T01:20:13.129Z,13.36
2018-06-14T01:22:42.023Z,13.51
2018-06-14T01:25:10.956Z,13.53
2018-06-14T01:27:39.917Z,13.60
2018-06-14T01:30:08.842Z,13.66
2018-06-14T01:32:37.758Z,13.62
2018-06-14T01:35:06.661Z,13.63
2018-06-14T01:37:47.018Z,13.67
2018-06-14T01:40:15.956Z,13.66
2018-06-14T01:42:44.885Z,13.74
2018-06-14T01:45:13.784Z,13.76
2018-06-14T01:47:42.704Z,13.79
2018-06-14T01:50:11.606Z,13.84
2018-06-14T01:52:40.529Z,13.82
2018-06-14T01:55:09.442Z,13.69
2018-06-14T01:57:38.374Z,13.68
2018-06-14T02:00:07.285Z,13.64
2018-06-14T02:02:36.583Z,13.70
2018-06-14T02:05:05.646Z,13.68
2018-06-14T02:07:34.553Z,13.66
2018-06-14T02:10:03.496Z,13.71
2018-06-14T02:12:32.430Z,13.65
2018-06-14T02:15:01.854Z,13.54
2018-06-14T02:17:30.826Z,13.46
2018-06-14T02:19:59.754Z,13.54
2018-06-14T02:22:28.643Z,13.60
2018-06-14T02:24:57.576Z,13.73
2018-06-14T02:27:26.482Z,13.70
2018-06-14T02:29:55.390Z,13.56
2018-06-14T02:32:24.323Z,13.51
2018-06-14T02:34:53.254Z,13.60
2018-06-14T02:37:22.558Z,13.42
2018-06-14T02:39:51.478Z,13.55
2018-06-14T02:42:20.378Z,13.57
2018-06-14T02:44:49.312Z,13.63
2018-06-14T02:47:18.230Z,13.69
2018-06-14T02:49:47.144Z,13.62
2018-06-14T02:52:16.035Z,13.61
2018-06-14T02:54:44.987Z,13.55
2018-06-14T02:57:13.911Z,13.62
2018-06-14T02:59:42.856Z,13.59
2018-06-14T03:02:11.770Z,13.60
2018-06-14T03:04:40.751Z,13.56
2018-06-14T03:07:09.750Z,13.29
2018-06-14T03:09:38.954Z,13.40
2018-06-14T03:12:07.961Z,13.39
2018-06-14T03:14:36.858Z,13.40
2018-06-14T03:17:05.778Z,13.40
2018-06-14T03:19:34.696Z,13.44
2018-06-14T03:22:03.610Z,13.53
2018-06-14T03:24:32.537Z,13.56
2018-06-14T03:27:01.474Z,13.61
2018-06-14T03:29:30.400Z,13.58
2018-06-14T03:31:59.299Z,13.55
2018-06-14T03:34:28.226Z,13.44
2018-06-14T03:36:57.145Z,13.40
2018-06-14T03:39:26.056Z,13.44
2018-06-14T03:41:55.081Z,13.49
2018-06-14T03:44:24.177Z,13.57
2018-06-14T03:46:53.091Z,13.44
2018-06-14T03:49:22.151Z,13.62
2018-06-14T03:51:51.062Z,13.54
2018-06-14T03:54:19.997Z,13.64
2018-06-14T03:56:48.909Z,13.64
2018-06-14T03:59:17.880Z,13.53
2018-06-14T04:01:50.618Z,13.60
2018-06-14T04:04:19.676Z,13.69
2018-06-14T04:06:48.637Z,13.70
2018-06-14T04:09:17.519Z,13.62
2018-06-14T04:11:46.463Z,13.51
2018-06-14T04:14:15.365Z,13.68
2018-06-14T04:16:44.297Z,13.71
2018-06-14T04:19:13.213Z,13.68
2018-06-14T04:21:43.097Z,13.67
2018-06-14T04:24:12.026Z,13.82
2018-06-14T04:26:40.930Z,13.71
2018-06-14T04:29:09.862Z,13.79
2018-06-14T04:31:38.814Z,13.78
2018-06-14T04:34:08.641Z,13.89
2018-06-14T04:36:37.545Z,13.87
2018-06-14T04:39:08.726Z,13.80
2018-06-14T04:41:37.640Z,13.64
2018-06-14T04:44:06.754Z,13.89
2018-06-14T04:46:35.685Z,13.96
2018-06-14T04:49:04.588Z,13.99
2018-06-14T04:51:37.673Z,14.15
2018-06-14T04:54:06.615Z,14.00
2018-06-14T04:56:35.564Z,14.19
2018-06-14T04:59:04.926Z,14.12
2018-06-14T05:01:34.162Z,14.20
2018-06-14T05:04:03.065Z,14.33
2018-06-14T05:06:32.450Z,14.46
2018-06-14T05:09:01.371Z,14.47
2018-06-14T05:11:30.320Z,14.50
2018-06-14T05:13:59.303Z,14.43
2018-06-14T05:16:28.212Z,14.58
2018-06-14T05:18:57.141Z,14.63
2018-06-14T05:21:26.241Z,14.63
2018-06-14T05:23:55.196Z,14.71
2018-06-14T05:26:24.104Z,14.70
2018-06-14T05:28:53.019Z,14.80
2018-06-14T05:31:21.940Z,14.78
2018-06-14T05:33:50.859Z,14.86
2018-06-14T05:36:19.788Z,14.91
2018-06-14T05:38:48.698Z,14.83
2018-06-14T05:41:17.618Z,14.84
2018-06-14T05:43:46.576Z,14.96
2018-06-14T05:46:15.662Z,15.07
2018-06-14T05:48:44.574Z,15.06
2018-06-14T05:51:13.468Z,15.05
2018-06-14T05:53:42.378Z,14.98
2018-06-14T05:56:11.401Z,15.19
2018-06-14T05:58:40.288Z,15.33
2018-06-14T06:01:09.204Z,15.12
2018-06-14T06:03:38.096Z,15.36
2018-06-14T06:06:07.027Z,15.51
2018-06-14T06:08:35.982Z,15.49
2018-06-14T06:11:04.916Z,15.48
2018-06-14T06:13:33.836Z,15.57
2018-06-14T06:16:02.759Z,15.43
2018-06-14T06:18:31.693Z,15.58
2018-06-14T06:21:00.609Z,15.52
2018-06-14T06:23:29.828Z,15.65
2018-06-14T06:25:59.060Z,15.73
2018-06-14T06:28:27.980Z,15.88
2018-06-14T06:30:56.916Z,15.92
2018-06-14T06:33:25.932Z,15.89
2018-06-14T06:35:54.805Z,15.89
2018-06-14T06:38:23.732Z,15.94
2018-06-14T06:40:52.636Z,16.03
2018-06-14T06:43:21.721Z,16.06
2018-06-14T06:45:50.644Z,16.18
2018-06-14T06:48:19.569Z,16.28
2018-06-14T06:50:48.474Z,16.26
2018-06-14T06:53:17.731Z,16.18
2018-06-14T06:55:47.001Z,16.33
2018-06-14T06:58:16.246Z,16.43
2018-06-14T07:00:45.524Z,16.44
2018-06-14T07:03:14.419Z,16.52
2018-06-14T07:05:43.329Z,16.57
2018-06-14T07:08:12.270Z,16.64
2018-06-14T07:10:41.148Z,16.66
2018-06-14T07:13:10.066Z,16.66
2018-06-14T07:15:42.289Z,16.72
2018-06-14T07:18:11.418Z,16.72
2018-06-14T07:20:40.338Z,16.81
2018-06-14T07:23:09.253Z,16.82
2018-06-14T07:25:38.181Z,16.81
2018-06-14T07:28:07.205Z,16.88
2018-06-14T07:30:36.133Z,16.88
2018-06-14T07:33:05.126Z,16.96
2018-06-14T07:35:34.035Z,17.06
2018-06-14T07:38:02.950Z,17.09
2018-06-14T07:40:31.860Z,17.09
2018-06-14T07:43:00.857Z,17.10
2018-06-14T07:45:29.702Z,17.17
2018-06-14T07:47:58.747Z,17.25
2018-06-14T07:50:27.673Z,17.27
2018-06-14T07:52:57.246Z,17.32
2018-06-14T07:55:26.187Z,17.34
2018-06-14T07:57:55.086Z,17.42
2018-06-14T08:00:24.000Z,17.41
2018-06-14T08:02:52.919Z,17.41
2018-06-14T08:05:21.844Z,17.48
2018-06-14T08:07:50.776Z,17.64
2018-06-14T08:10:19.696Z,17.69
2018-06-14T08:12:48.586Z,17.78
2018-06-14T08:15:17.497Z,17.83
2018-06-14T08:17:46.402Z,17.87
2018-06-14T08:20:15.310Z,17.88
2018-06-14T08:22:44.265Z,17.87
2018-06-14T08:25:13.165Z,17.95
2018-06-14T08:27:42.068Z,18.00
2018-06-14T08:30:10.997Z,18.00
2018-06-14T08:32:39.923Z,18.01
2018-06-14T08:35:09.153Z,18.04
2018-06-14T08:37:38.058Z,17.99
2018-06-14T08:40:07.088Z,18.07
2018-06-14T08:42:36.012Z,18.15
2018-06-14T08:45:04.952Z,18.15
2018-06-14T08:47:33.853Z,18.20
2018-06-14T08:50:02.767Z,18.32
2018-06-14T08:52:31.711Z,18.51
2018-06-14T08:55:00.841Z,18.66
2018-06-14T08:57:29.766Z,18.74
2018-06-14T08:59:58.904Z,18.75
2018-06-14T09:02:27.821Z,18.78
2018-06-14T09:04:56.731Z,18.68
2018-06-14T09:07:25.631Z,18.63
2018-06-14T09:09:54.559Z,18.68
2018-06-14T09:12:23.500Z,18.71
2018-06-14T09:14:52.398Z,18.78
2018-06-14T09:17:21.311Z,18.76
2018-06-14T09:19:50.262Z,18.85
2018-06-14T09:22:19.180Z,18.87
2018-06-14T09:24:48.521Z,18.82
2018-06-14T09:27:17.432Z,18.80
2018-06-14T09:29:46.403Z,18.84
2018-06-14T09:32:15.313Z,18.81
2018-06-14T09:34:44.247Z,18.81
2018-06-14T09:37:13.165Z,18.83
2018-06-14T09:39:42.074Z,18.97
2018-06-14T09:42:11.021Z,19.11
2018-06-14T09:44:39.919Z,19.12
2018-06-14T09:47:08.865Z,19.18
2018-06-14T09:49:37.794Z,19.20
2018-06-14T09:52:07.232Z,19.13
2018-06-14T09:54:36.170Z,19.04
2018-06-14T09:57:05.081Z,19.04
2018-06-14T09:59:34.180Z,19.00
2018-06-14T10:02:03.082Z,19.04
2018-06-14T10:04:32.024Z,19.05
2018-06-14T10:07:00.990Z,19.20
2018-06-14T10:09:29.928Z,19.29
2018-06-14T10:11:58.852Z,19.34
2018-06-14T10:14:27.774Z,19.40
2018-06-14T10:16:56.675Z,19.54
2018-06-14T10:19:25.644Z,19.66
2018-06-14T10:21:54.566Z,19.74
2018-06-14T10:24:23.472Z,19.80
2018-06-14T10:26:52.403Z,19.86
2018-06-14T10:29:21.483Z,19.92
2018-06-14T10:31:50.845Z,19.94
2018-06-14T10:34:19.753Z,19.94
2018-06-14T10:36:48.652Z,19.88
2018-06-14T10:39:17.714Z,19.86
2018-06-14T10:41:46.668Z,19.93
2018-06-14T10:44:15.586Z,19.98
2018-06-14T10:46:44.500Z,19.99
2018-06-14T10:49:13.685Z,19.97
2018-06-14T10:51:42.606Z,19.91
2018-06-14T10:54:11.658Z,19.94
2018-06-14T10:56:40.593Z,19.97
2018-06-14T10:59:09.814Z,20.01
2018-06-14T11:01:38.741Z,19.98
2018-06-14T11:04:07.721Z,19.97
2018-06-14T11:06:36.624Z,19.98
2018-06-14T11:09:08.501Z,20.17
2018-06-14T11:11:37.424Z,20.33
2018-06-14T11:14:06.438Z,20.49
2018-06-14T11:16:35.514Z,20.50
2018-06-14T11:19:04.590Z,20.49
2018-06-14T11:21:33.733Z,20.53
2018-06-14T11:24:03.049Z,20.49
2018-06-14T11:26:31.996Z,20.38
2018-06-14T11:29:00.952Z,20.33
2018-06-14T11:31:29.868Z,20.31
2018-06-14T11:33:58.782Z,20.38
2018-06-14T11:36:27.690Z,20.42
2018-06-14T11:38:56.648Z,20.44
2018-06-14T11:41:25.576Z,20.50
2018-06-14T11:43:54.461Z,20.48
2018-06-14T11:46:23.371Z,20.49
2018-06-14T11:48:52.271Z,20.63
2018-06-14T11:51:21.179Z,20.79
2018-06-14T11:53:50.108Z,20.86
2018-06-14T11:56:19.033Z,20.90
2018-06-14T11:58:47.966Z,21.03
2018-06-14T12:01:16.855Z,21.16
2018-06-14T12:03:45.768Z,21.17
2018-06-14T12:06:14.679Z,21.05
2018-06-14T12:08:43.600Z,21.11
2018-06-14T12:11:12.494Z,21.13
2018-06-14T12:13:41.387Z,21.18
2018-06-14T12:16:10.272Z,21.15
2018-06-14T12:18:39.182Z,21.20
2018-06-14T12:21:08.339Z,21.23
2018-06-14T12:23:37.238Z,21.22
2018-06-14T12:26:06.250Z,21.22
2018-06-14T12:28:35.189Z,21.24
2018-06-14T12:31:04.132Z,21.36
2018-06-14T12:33:33.049Z,21.37
2018-06-14T12:36:01.965Z,21.23
2018-06-14T12:38:30.903Z,21.17
2018-06-14T12:40:59.845Z,20.93
2018-06-14T12:43:28.758Z,20.89
2018-06-14T12:45:57.698Z,20.98
2018-06-14T12:48:26.576Z,21.07
2018-06-14T12:50:59.144Z,21.10
2018-06-14T12:53:28.134Z,21.15
2018-06-14T12:55:57.067Z,21.19
2018-06-14T12:58:26.012Z,21.19
2018-06-14T13:00:54.855Z,21.20
2018-06-14T13:03:23.791Z,21.28
2018-06-14T13:05:52.714Z,21.25
2018-06-14T13:08:21.635Z,21.22
2018-06-14T13:10:50.549Z,21.17
2018-06-14T13:13:19.578Z,21.21
2018-06-14T13:15:48.495Z,21.22
2018-06-14T13:18:17.866Z,21.16
2018-06-14T13:20:46.812Z,21.14
2018-06-14T13:23:16.051Z,21.16
2018-06-14T13:25:45.158Z,21.16
2018-06-14T13:28:17.508Z,21.20
2018-06-14T13:30:46.517Z,21.13
2018-06-14T13:33:15.418Z,21.08
2018-06-14T13:35:44.386Z,21.03
2018-06-14T13:38:13.313Z,21.02
2018-06-14T13:40:42.243Z,21.03
2018-06-14T13:43:11.284Z,21.10
2018-06-14T13:45:40.386Z,21.07
2018-06-14T13:48:09.302Z,21.05
2018-06-14T13:50:38.218Z,21.03
2018-06-14T13:53:07.112Z,20.96
2018-06-14T13:55:36.112Z,20.85
2018-06-14T13:58:04.961Z,20.85
2018-06-14T14:00:33.888Z,20.79
2018-06-14T14:03:02.792Z,20.69
2018-06-14T14:05:31.723Z,20.66
2018-06-14T14:08:00.640Z,20.60
2018-06-14T14:10:29.548Z,20.55
2018-06-14T14:12:58.460Z,20.57
2018-06-14T14:15:27.387Z,20.55
2018-06-14T14:17:58.295Z,20.48
2018-06-14T14:20:27.188Z,20.37
2018-06-14T14:22:56.425Z,20.23
2018-06-14T14:25:25.819Z,20.15
2018-06-14T14:27:55.010Z,20.03
2018-06-14T14:30:23.950Z,19.99
2018-06-14T14:32:52.856Z,19.96
2018-06-14T14:35:21.777Z,19.86
2018-06-14T14:37:50.706Z,19.90
2018-06-14T14:40:19.687Z,19.86
2018-06-14T14:42:48.619Z,19.73
2018-06-14T14:45:17.519Z,19.63
2018-06-14T14:47:46.463Z,19.55
2018-06-14T14:50:15.377Z,19.48
2018-06-14T14:52:44.306Z,19.44
2018-06-14T14:55:13.195Z,19.27
2018-06-14T14:57:42.174Z,19.25
2018-06-14T15:00:11.090Z,19.11
2018-06-14T15:02:39.989Z,18.92
2018-06-14T15:05:08.915Z,18.87
2018-06-14T15:07:37.833Z,18.76
2018-06-14T15:10:06.757Z,18.79
2018-06-14T15:12:35.681Z,18.77
2018-06-14T15:15:04.592Z,18.72
2018-06-14T15:17:33.555Z,18.58
2018-06-14T15:20:02.445Z,18.68
2018-06-14T15:22:31.374Z,18.70
2018-06-14T15:25:00.286Z,18.69
2018-06-14T15:27:29.211Z,18.51
2018-06-14T15:29:58.136Z,18.61
2018-06-14T15:32:27.050Z,18.64
2018-06-14T15:34:56.032Z,18.51
2018-06-14T15:37:28.058Z,18.48
2018-06-14T15:39:56.987Z,18.51
2018-06-14T15:42:26.241Z,18.42
2018-06-14T15:44:55.149Z,18.29
2018-06-14T15:47:24.095Z,18.43
2018-06-14T15:49:53.007Z,18.21
2018-06-14T15:52:21.947Z,18.26
2018-06-14T15:56:05.692Z,18.26
2018-06-14T15:58:34.641Z,18.20
2018-06-14T16:01:03.538Z,18.18
2018-06-14T16:03:32.558Z,18.25
2018-06-14T16:06:01.730Z,18.18
2018-06-14T16:08:30.939Z,18.10
2018-06-14T16:11:06.063Z,18.17
2018-06-14T16:13:35.025Z,18.24
2018-06-14T16:16:03.931Z,18.17
2018-06-14T16:18:33.290Z,18.19
2018-06-14T16:21:02.225Z,18.07
2018-06-14T16:23:31.161Z,18.06
2018-06-14T16:26:00.105Z,18.08
2018-06-14T16:28:29.055Z,18.08
2018-06-14T16:30:58.180Z,18.08
2018-06-14T16:33:27.172Z,18.10
2018-06-14T16:35:56.426Z,18.09
2018-06-14T16:38:25.882Z,18.13
2018-06-14T16:40:54.843Z,18.18
2018-06-14T16:43:23.826Z,18.00
2018-06-14T16:45:52.755Z,18.06
2018-06-14T16:48:21.684Z,18.04
2018-06-14T16:50:54.381Z,17.97
2018-06-14T16:53:23.443Z,17.99
2018-06-14T16:55:52.452Z,18.03
2018-06-14T16:58:21.483Z,18.00
2018-06-14T17:00:50.401Z,18.06
2018-06-14T17:03:19.366Z,18.12
2018-06-14T17:05:48.300Z,18.09
2018-06-14T17:08:17.199Z,18.02
2018-06-14T17:10:46.144Z,17.98
2018-06-14T17:13:15.058Z,18.01
2018-06-14T17:15:43.965Z,18.02
2018-06-14T17:18:12.889Z,18.03
2018-06-14T17:20:41.824Z,18.05
2018-06-14T17:23:10.749Z,18.02
2018-06-14T17:25:39.697Z,18.00
2018-06-14T17:28:08.649Z,18.00
2018-06-14T17:30:37.562Z,17.99
2018-06-14T17:33:06.478Z,17.97
2018-06-14T17:35:35.463Z,17.94
2018-06-14T17:38:04.576Z,18.04
2018-06-14T17:40:33.973Z,17.99
2018-06-14T17:43:03.794Z,18.03
2018-06-14T17:45:32.741Z,18.00
2018-06-14T17:48:01.718Z,18.07
2018-06-14T17:50:30.637Z,18.04
2018-06-14T17:52:59.782Z,18.03
2018-06-14T17:55:28.667Z,18.05
2018-06-14T17:57:57.589Z,18.05
2018-06-14T18:00:26.577Z,18.00
2018-06-14T18:02:55.456Z,17.97
2018-06-14T18:05:24.364Z,18.01
2018-06-14T18:07:53.276Z,18.05
2018-06-14T18:10:26.087Z,18.09
2018-06-14T18:12:55.036Z,18.08
2018-06-14T18:15:23.961Z,18.09
2018-06-14T18:17:52.920Z,18.13
2018-06-14T18:20:21.786Z,18.13
2018-06-14T18:22:50.718Z,18.15
2018-06-14T18:25:19.607Z,18.20
2018-06-14T18:27:48.514Z,18.11
2018-06-14T18:30:17.431Z,18.11
2018-06-14T18:32:46.393Z,18.02
2018-06-14T18:35:15.280Z,17.99
2018-06-14T18:37:44.201Z,18.02
2018-06-14T18:40:13.122Z,18.04
2018-06-14T18:42:42.052Z,18.01
2018-06-14T18:45:11.058Z,18.01
2018-06-14T18:47:40.014Z,17.98
2018-06-14T18:50:11.070Z,17.92
2018-06-14T18:52:39.971Z,17.96
2018-06-14T18:55:08.921Z,17.93
2018-06-14T18:57:37.844Z,17.91
2018-06-14T19:00:06.770Z,17.91
2018-06-14T19:02:35.686Z,17.80
2018-06-14T19:05:04.643Z,17.85
2018-06-14T19:07:33.584Z,17.85
2018-06-14T19:10:02.470Z,17.83
2018-06-14T19:12:31.404Z,17.85
2018-06-14T19:15:00.340Z,17.83
2018-06-14T19:17:29.502Z,17.82
2018-06-14T19:19:58.372Z,17.81
2018-06-14T19:22:27.305Z,17.82
2018-06-14T19:24:56.506Z,17.87
2018-06-14T19:27:25.412Z,17.90
2018-06-14T19:29:54.617Z,17.90
2018-06-14T19:32:23.565Z,17.88
2018-06-14T19:34:52.517Z,17.84
2018-06-14T19:37:21.489Z,17.88
2018-06-14T19:39:50.427Z,17.94
2018-06-14T19:42:19.452Z,17.86
2018-06-14T19:44:48.351Z,17.83
2018-06-14T19:47:17.362Z,17.71
2018-06-14T19:49:46.283Z,17.57
2018-06-14T19:52:15.338Z,17.43
2018-06-14T19:54:44.293Z,17.53
2018-06-14T19:57:13.181Z,17.47
2018-06-14T19:59:42.076Z,17.37
2018-06-14T20:02:11.099Z,17.35
2018-06-14T20:04:40.313Z,17.42
2018-06-14T20:07:09.339Z,17.40
2018-06-14T20:09:38.260Z,17.46
2018-06-14T20:12:07.710Z,17.47
2018-06-14T20:14:36.625Z,17.48
2018-06-14T20:17:05.901Z,17.48
2018-06-14T20:19:34.829Z,17.45
2018-06-14T20:22:03.763Z,17.44
2018-06-14T20:24:32.669Z,17.41
2018-06-14T20:27:01.601Z,17.36
2018-06-14T20:29:30.518Z,17.38
2018-06-14T20:31:59.412Z,17.47
2018-06-14T20:34:28.373Z,17.42
2018-06-14T20:36:57.290Z,17.43
2018-06-14T20:39:26.199Z,17.50
2018-06-14T20:41:55.178Z,17.46
2018-06-14T20:44:25.047Z,17.42
2018-06-14T20:46:54.112Z,17.45
2018-06-14T20:49:23.016Z,17.47
2018-06-14T20:51:51.995Z,17.34
2018-06-14T20:54:20.857Z,17.40
2018-06-14T20:56:49.786Z,17.40
2018-06-14T20:59:18.713Z,17.44
2018-06-14T21:01:47.603Z,17.39
2018-06-14T21:04:16.653Z,17.30
2018-06-14T21:06:45.696Z,17.35
2018-06-14T21:09:14.673Z,17.33
2018-06-14T21:11:43.801Z,17.30
2018-06-14T21:14:12.724Z,17.27
2018-06-14T21:16:41.640Z,17.31
2018-06-14T21:19:10.554Z,17.29
2018-06-14T21:21:39.476Z,17.23
2018-06-14T21:24:08.416Z,17.25
2018-06-14T21:26:37.325Z,17.29
2018-06-14T21:29:06.238Z,17.33
2018-06-14T21:31:35.154Z,17.27
2018-06-14T21:34:04.099Z,17.33
2018-06-14T21:36:33.026Z,17.30
2018-06-14T21:39:01.955Z,17.29
2018-06-14T21:41:30.897Z,17.30
2018-06-14T21:43:59.787Z,17.33
2018-06-14T21:46:28.698Z,17.32
2018-06-14T21:48:57.638Z,17.26
2018-06-14T21:51:26.539Z,17.25
2018-06-14T21:53:55.453Z,17.26
2018-06-14T21:56:24.369Z,17.29
2018-06-14T21:58:53.272Z,17.27
2018-06-14T22:01:22.226Z,17.28
2018-06-14T22:03:53.950Z,17.26
2018-06-14T22:06:22.862Z,17.20
2018-06-14T22:08:51.784Z,17.20
2018-06-14T22:11:20.709Z,17.17
2018-06-14T22:13:49.619Z,17.21
2018-06-14T22:16:18.534Z,17.21
2018-06-14T22:18:47.512Z,17.14
2018-06-14T22:21:16.520Z,17.24
2018-06-14T22:23:45.672Z,17.29
2018-06-14T22:26:14.723Z,17.25
2018-06-14T22:28:43.623Z,17.21
2018-06-14T22:31:12.542Z,17.21
2018-06-14T22:33:52.697Z,17.23
2018-06-14T22:36:21.622Z,17.24
2018-06-14T22:38:50.911Z,17.26
2018-06-14T22:41:19.859Z,17.29
2018-06-14T22:43:48.768Z,17.28
2018-06-14T22:46:17.697Z,17.30
2018-06-14T22:48:46.601Z,17.23
2018-06-14T22:51:18.364Z,17.21
2018-06-14T22:53:47.416Z,17.25
2018-06-14T22:56:16.389Z,17.21
2018-06-14T22:58:45.468Z,17.11
2018-06-14T23:01:52.190Z,17.08
2018-06-14T23:04:24.334Z,17.15
2018-06-14T23:06:53.515Z,17.16
2018-06-14T23:10:37.579Z,17.18
2018-06-14T23:13:07.486Z,17.25
2018-06-14T23:15:36.645Z,17.07
2018-06-14T23:18:05.636Z,17.13
2018-06-14T23:20:35.502Z,17.19
2018-06-14T23:23:08.848Z,17.20
2018-06-14T23:25:38.231Z,17.16
2018-06-14T23:28:07.702Z,17.20
2018-06-14T23:30:36.628Z,17.23
2018-06-14T23:33:05.589Z,17.23
2018-06-14T23:35:34.502Z,17.19
2018-06-14T23:38:03.440Z,17.25
2018-06-14T23:40:32.353Z,17.32
2018-06-14T23:43:01.345Z,17.24
2018-06-14T23:45:30.398Z,17.11
2018-06-14T23:47:59.329Z,17.12
2018-06-14T23:50:28.529Z,17.11
2018-06-14T23:52:57.443Z,17.13
2018-06-14T23:55:26.685Z,17.12
2018-06-14T23:57:55.605Z,17.18
